createdAt,value
2019-03-09T00:04:42.895Z,98219.72
2019-03-09T00:09:50.155Z,98225.07
2019-03-09T00:14:55.437Z,98216.20
2019-03-09T00:20:00.696Z,98207.88
2019-03-09T00:25:15.705Z,98197.14
2019-03-09T00:30:48.878Z,98186.98
2019-03-09T00:35:54.073Z,98175.27
2019-03-09T00:40:59.299Z,98175.89
2019-03-09T00:46:05.292Z,98170.78
2019-03-09T00:51:11.100Z,98166.44
2019-03-09T00:56:16.365Z,98156.16
2019-03-09T01:01:22.243Z,98149.01
2019-03-09T01:06:29.038Z,98147.31
2019-03-09T01:11:35.249Z,98143.58
2019-03-09T01:16:40.825Z,98131.75
2019-03-09T01:21:46.125Z,98105.71
2019-03-09T01:26:51.820Z,98091.41
2019-03-09T01:31:57.201Z,98081.86
2019-03-09T01:37:02.784Z,98061.91
2019-03-09T01:42:08.068Z,98047.56
2019-03-09T01:47:13.282Z,98041.84
2019-03-09T01:52:18.473Z,98020.25
2019-03-09T01:57:23.938Z,98012.95
2019-03-09T02:02:29.126Z,98004.70
2019-03-09T02:07:34.320Z,98006.70
2019-03-09T02:12:39.772Z,98005.53
2019-03-09T02:17:44.965Z,97974.20
2019-03-09T02:22:50.172Z,97968.91
2019-03-09T02:27:55.463Z,97972.88
2019-03-09T02:33:00.674Z,97970.22
2019-03-09T02:38:27.671Z,97976.15
2019-03-09T02:43:32.869Z,97955.19
2019-03-09T02:48:38.115Z,97945.69
2019-03-09T02:53:43.597Z,97939.42
2019-03-09T02:58:48.801Z,97945.55
2019-03-09T03:03:54.022Z,97979.68
2019-03-09T03:08:59.646Z,97927.39
2019-03-09T03:14:05.847Z,97934.17
2019-03-09T03:19:11.051Z,97935.54
2019-03-09T03:24:16.616Z,97926.02
2019-03-09T03:29:31.109Z,97930.34
2019-03-09T03:34:36.383Z,97923.62
2019-03-09T03:39:41.629Z,97942.42
2019-03-09T03:44:46.999Z,97921.11
2019-03-09T03:49:53.741Z,97933.89
2019-03-09T03:54:59.113Z,97927.02
2019-03-09T04:00:05.348Z,97936.68
2019-03-09T04:05:10.716Z,97931.98
2019-03-09T04:10:16.426Z,97926.80
2019-03-09T04:15:21.635Z,97928.37
2019-03-09T04:20:27.136Z,97939.08
2019-03-09T04:25:33.068Z,97945.45
2019-03-09T04:30:38.262Z,97962.22
2019-03-09T04:35:43.722Z,97955.70
2019-03-09T04:40:48.895Z,97960.50
2019-03-09T04:45:54.144Z,97961.83
2019-03-09T04:50:59.409Z,97958.69
2019-03-09T04:56:04.936Z,97968.07
2019-03-09T05:01:11.622Z,97951.30
2019-03-09T05:06:19.072Z,97972.77
2019-03-09T05:11:28.177Z,97974.67
2019-03-09T05:16:33.481Z,97976.45
2019-03-09T05:21:39.642Z,97989.25
2019-03-09T05:26:45.098Z,97989.83
2019-03-09T05:31:50.373Z,98022.62
2019-03-09T05:36:55.627Z,98008.39
2019-03-09T05:42:00.829Z,98017.06
2019-03-09T05:47:06.024Z,98020.94
2019-03-09T05:52:33.336Z,98023.70
2019-03-09T05:57:38.564Z,98035.27
2019-03-09T06:02:43.820Z,98039.25
2019-03-09T06:07:49.076Z,98050.69
2019-03-09T06:12:54.326Z,98024.98
2019-03-09T06:17:59.812Z,98053.56
2019-03-09T06:23:05.508Z,98066.97
2019-03-09T06:28:10.866Z,98075.75
2019-03-09T06:33:33.200Z,98079.95
2019-03-09T06:38:41.318Z,98094.65
2019-03-09T06:43:46.725Z,98103.80
2019-03-09T06:48:52.011Z,98094.35
2019-03-09T06:53:57.323Z,98088.27
2019-03-09T06:59:02.603Z,98095.13
2019-03-09T07:04:07.919Z,98089.59
2019-03-09T07:09:13.158Z,98091.41
2019-03-09T07:14:53.913Z,98084.35
2019-03-09T07:19:59.486Z,98100.64
2019-03-09T07:25:04.959Z,98109.42
2019-03-09T07:30:15.843Z,98121.78
2019-03-09T07:35:21.058Z,98128.89
2019-03-09T07:40:26.253Z,98153.32
2019-03-09T07:45:31.579Z,98149.03
2019-03-09T07:50:36.887Z,98163.31
2019-03-09T07:55:42.411Z,98163.03
2019-03-09T08:00:47.993Z,98182.22
2019-03-09T08:05:53.324Z,98204.76
2019-03-09T08:10:59.615Z,98195.84
2019-03-09T08:16:04.877Z,98211.97
2019-03-09T08:21:10.416Z,98220.11
2019-03-09T08:26:15.607Z,98229.21
2019-03-09T08:31:20.910Z,98236.90
2019-03-09T08:36:28.078Z,98229.06
2019-03-09T08:41:33.815Z,98233.84
2019-03-09T08:46:39.037Z,98241.41
2019-03-09T08:51:44.248Z,98246.15
2019-03-09T08:56:49.490Z,98256.46
2019-03-09T09:01:54.817Z,98240.07
2019-03-09T09:07:00.484Z,98250.81
2019-03-09T09:12:05.686Z,98251.04
2019-03-09T09:17:13.679Z,98248.65
2019-03-09T09:22:20.058Z,98249.32
2019-03-09T09:27:25.582Z,98264.49
2019-03-09T09:32:31.017Z,98266.95
2019-03-09T09:37:36.918Z,98275.31
2019-03-09T09:42:42.272Z,98267.49
2019-03-09T09:47:48.450Z,98275.34
2019-03-09T09:52:54.045Z,98267.49
2019-03-09T09:58:01.452Z,98249.75
2019-03-09T10:03:07.104Z,98245.83
2019-03-09T10:08:12.904Z,98255.42
2019-03-09T10:13:18.374Z,98257.09
2019-03-09T10:18:23.643Z,98255.31
2019-03-09T10:23:29.276Z,98258.23
2019-03-09T10:28:35.397Z,98242.86
2019-03-09T10:33:40.886Z,98233.95
2019-03-09T10:38:46.115Z,98222.81
2019-03-09T10:43:51.769Z,98224.78
2019-03-09T10:48:57.106Z,98232.06
2019-03-09T10:54:02.803Z,98225.05
2019-03-09T10:59:08.070Z,98209.60
2019-03-09T11:04:13.628Z,98197.77
2019-03-09T11:09:19.016Z,98181.84
2019-03-09T11:14:24.347Z,98198.33
2019-03-09T11:20:10.361Z,98216.89
2019-03-09T11:25:15.909Z,98225.84
2019-03-09T11:30:25.457Z,98231.11
2019-03-09T11:35:32.896Z,98227.79
2019-03-09T11:40:38.340Z,98212.67
2019-03-09T11:45:43.755Z,98195.70
2019-03-09T11:50:49.343Z,98179.66
2019-03-09T11:55:55.113Z,98180.66
2019-03-09T12:01:01.041Z,98233.44
2019-03-09T12:06:06.401Z,98208.40
2019-03-09T12:11:13.561Z,98209.38
2019-03-09T12:16:19.091Z,98179.27
2019-03-09T12:21:24.406Z,98156.78
2019-03-09T12:26:30.058Z,98127.76
2019-03-09T12:31:37.703Z,98126.59
2019-03-09T12:36:44.278Z,98096.16
2019-03-09T12:41:49.637Z,98056.16
2019-03-09T12:46:55.663Z,98067.89
2019-03-09T12:52:01.102Z,98067.89
2019-03-09T12:57:06.774Z,98039.11
2019-03-09T13:02:12.364Z,98033.31
2019-03-09T13:07:17.665Z,98017.38
2019-03-09T13:12:23.085Z,98012.59
2019-03-09T13:17:28.370Z,97990.14
2019-03-09T13:22:36.110Z,97956.66
2019-03-09T13:27:41.474Z,97945.41
2019-03-09T13:32:46.961Z,97945.24
2019-03-09T13:37:52.599Z,97923.09
2019-03-09T13:42:57.885Z,97917.79
2019-03-09T13:48:03.215Z,97894.69
2019-03-09T13:53:08.416Z,97843.91
2019-03-09T13:58:13.806Z,97843.94
2019-03-09T14:03:19.186Z,97839.46
2019-03-09T14:08:24.444Z,97836.72
2019-03-09T14:13:29.657Z,97861.89
2019-03-09T14:18:34.883Z,97877.88
2019-03-09T14:23:40.462Z,97873.64
2019-03-09T14:28:45.753Z,97847.09
2019-03-09T14:33:51.225Z,97842.21
2019-03-09T14:38:56.771Z,97848.18
2019-03-09T14:44:02.320Z,97795.27
2019-03-09T14:49:07.521Z,97804.04
2019-03-09T14:54:12.739Z,97781.87
2019-03-09T14:59:18.659Z,97828.13
2019-03-09T15:04:23.983Z,97843.13
2019-03-09T15:09:29.344Z,97865.59
2019-03-09T15:14:34.999Z,97839.60
2019-03-09T15:19:40.212Z,97813.36
2019-03-09T15:24:45.459Z,97822.22
2019-03-09T15:29:51.078Z,97825.72
2019-03-09T15:34:56.281Z,97822.98
2019-03-09T15:40:01.474Z,97826.03
2019-03-09T15:45:09.555Z,97833.28
2019-03-09T15:50:15.512Z,97838.01
2019-03-09T15:55:21.593Z,97852.63
2019-03-09T16:00:26.846Z,97879.56
2019-03-09T16:05:32.044Z,97854.98
2019-03-09T16:10:37.317Z,97841.75
2019-03-09T16:15:42.657Z,97835.07
2019-03-09T16:20:47.877Z,97841.09
2019-03-09T16:25:53.238Z,97830.27
2019-03-09T16:30:58.463Z,97840.07
2019-03-09T16:36:04.836Z,97855.84
2019-03-09T16:41:10.146Z,97851.70
2019-03-09T16:46:15.458Z,97852.77
2019-03-09T16:51:21.020Z,97867.86
2019-03-09T16:56:26.474Z,97872.09
2019-03-09T17:01:31.860Z,97885.24
2019-03-09T17:06:37.094Z,97896.57
2019-03-09T17:11:42.765Z,97923.34
2019-03-09T17:16:48.109Z,97928.69
2019-03-09T17:21:53.570Z,97960.20
2019-03-09T17:26:59.048Z,97959.31
2019-03-09T17:32:05.178Z,97998.01
2019-03-09T17:37:11.499Z,98085.03
2019-03-09T17:42:16.806Z,98134.92
2019-03-09T17:47:22.092Z,98173.74
2019-03-09T17:52:27.629Z,98204.40
2019-03-09T17:57:33.928Z,98195.02
2019-03-09T18:02:39.430Z,98177.92
2019-03-09T18:07:45.759Z,98203.48
2019-03-09T18:12:50.924Z,98262.48
2019-03-09T18:17:56.454Z,98275.50
2019-03-09T18:23:01.650Z,98264.27
2019-03-09T18:28:07.280Z,98252.91
2019-03-09T18:33:12.794Z,98271.41
2019-03-09T18:38:18.897Z,98287.77
2019-03-09T18:43:24.104Z,98287.28
2019-03-09T18:48:30.378Z,98312.52
2019-03-09T18:53:37.988Z,98318.19
2019-03-09T18:58:43.348Z,98309.28
2019-03-09T19:03:48.599Z,98314.94
2019-03-09T19:08:53.861Z,98336.89
2019-03-09T19:13:59.458Z,98355.59
2019-03-09T19:19:04.681Z,98344.88
2019-03-09T19:24:09.985Z,98349.70
2019-03-09T19:29:15.377Z,98347.27
2019-03-09T19:34:24.070Z,98347.78
2019-03-09T19:39:30.809Z,98345.63
2019-03-09T19:44:36.274Z,98379.30
2019-03-09T19:49:41.472Z,98402.59
2019-03-09T19:54:48.696Z,98405.52
2019-03-09T19:59:54.045Z,98397.89
2019-03-09T20:04:59.330Z,98407.80
2019-03-09T20:10:05.153Z,98406.22
2019-03-09T20:15:12.048Z,98425.29
2019-03-09T20:20:17.326Z,98438.63
2019-03-09T20:25:22.601Z,98425.53
2019-03-09T20:30:28.138Z,98428.08
2019-03-09T20:35:35.138Z,98442.81
2019-03-09T20:40:40.775Z,98446.77
2019-03-09T20:45:46.410Z,98439.89
2019-03-09T20:50:53.972Z,98445.69
2019-03-09T20:56:00.364Z,98463.91
2019-03-09T21:01:08.374Z,98475.47
2019-03-09T21:06:13.619Z,98485.89
2019-03-09T21:11:19.607Z,98478.48
2019-03-09T21:16:24.846Z,98473.72
2019-03-09T21:21:30.447Z,98471.03
2019-03-09T21:26:35.906Z,98487.32
2019-03-09T21:31:41.153Z,98501.38
2019-03-09T21:36:46.364Z,98484.59
2019-03-09T21:41:51.790Z,98486.38
2019-03-09T21:46:57.279Z,98487.42
2019-03-09T21:52:02.618Z,98484.91
2019-03-09T21:57:08.215Z,98494.28
2019-03-09T22:02:13.450Z,98486.06
2019-03-09T22:07:18.753Z,98479.34
2019-03-09T22:12:24.217Z,98481.89
2019-03-09T22:17:29.801Z,98482.30
2019-03-09T22:22:35.158Z,98480.15
2019-03-09T22:27:41.767Z,98482.44
2019-03-09T22:32:47.333Z,98477.09
2019-03-09T22:37:52.615Z,98475.30
2019-03-09T22:42:57.991Z,98479.19
2019-03-09T22:48:03.165Z,98472.64
2019-03-09T22:53:08.374Z,98473.44
2019-03-09T22:58:13.593Z,98474.94
2019-03-09T23:03:18.958Z,98473.98
2019-03-09T23:08:24.352Z,98463.84
2019-03-09T23:13:29.922Z,98462.31
2019-03-09T23:18:35.205Z,98459.17
2019-03-09T23:23:40.438Z,98461.05
2019-03-09T23:28:48.800Z,98448.92
2019-03-09T23:33:54.182Z,98448.55
2019-03-09T23:38:59.735Z,98435.48
2019-03-09T23:44:07.751Z,98441.29
2019-03-09T23:49:12.956Z,98431.31
2019-03-09T23:54:18.174Z,98416.56
2019-03-09T23:59:23.349Z,98406.55
